createdAt,value
2019-02-17T00:00:49.730Z,96002.65
2019-02-17T00:03:19.265Z,96002.65
2019-02-17T00:05:48.711Z,96001.83
2019-02-17T00:08:18.235Z,96005.23
2019-02-17T00:10:47.723Z,96006.45
2019-02-17T00:13:17.211Z,96005.53
2019-02-17T00:15:46.755Z,96005.65
2019-02-17T00:18:16.241Z,96006.00
2019-02-17T00:20:45.707Z,96003.16
2019-02-17T00:23:15.204Z,96007.41
2019-02-17T00:25:44.671Z,96000.94
2019-02-17T00:28:14.180Z,96005.09
2019-02-17T00:30:43.641Z,96006.27
2019-02-17T00:33:13.093Z,96001.16
2019-02-17T00:35:42.542Z,96002.92
2019-02-17T00:38:12.043Z,96004.70
2019-02-17T00:40:41.510Z,95997.88
2019-02-17T00:43:10.977Z,95991.19
2019-02-17T00:45:40.475Z,95992.73
2019-02-17T00:48:09.989Z,95992.61
2019-02-17T00:50:39.450Z,95988.49
2019-02-17T00:53:08.978Z,95989.66
2019-02-17T00:55:38.478Z,95985.19
2019-02-17T00:58:07.960Z,95987.30
2019-02-17T01:00:37.452Z,95980.59
2019-02-17T01:03:06.928Z,95974.28
2019-02-17T01:05:36.461Z,95972.71
2019-02-17T01:08:06.235Z,95973.69
2019-02-17T01:10:35.743Z,95974.88
2019-02-17T01:13:05.247Z,95976.99
2019-02-17T01:15:34.724Z,95973.53
2019-02-17T01:18:04.206Z,95973.45
2019-02-17T01:20:33.699Z,95966.75
2019-02-17T01:23:03.141Z,95964.75
2019-02-17T01:25:32.625Z,95965.10
2019-02-17T01:28:02.116Z,95966.16
2019-02-17T01:30:31.568Z,95962.32
2019-02-17T01:33:01.051Z,95959.14
2019-02-17T01:35:30.512Z,95961.53
2019-02-17T01:37:59.987Z,95952.12
2019-02-17T01:40:29.460Z,95952.23
2019-02-17T01:42:58.935Z,95950.55
2019-02-17T01:45:28.442Z,95957.30
2019-02-17T01:47:57.940Z,95953.42
2019-02-17T01:50:27.432Z,95953.22
2019-02-17T01:52:58.136Z,95953.22
2019-02-17T01:55:27.597Z,95950.52
2019-02-17T01:57:57.083Z,95948.67
2019-02-17T02:00:26.606Z,95953.50
2019-02-17T02:02:56.090Z,95953.06
2019-02-17T02:05:25.631Z,95947.62
2019-02-17T02:07:55.126Z,95940.47
2019-02-17T02:10:24.585Z,95943.02
2019-02-17T02:12:54.067Z,95938.08
2019-02-17T02:15:23.561Z,95942.91
2019-02-17T02:17:53.002Z,95941.84
2019-02-17T02:20:22.462Z,95937.14
2019-02-17T02:22:51.909Z,95940.67
2019-02-17T02:25:21.358Z,95931.25
2019-02-17T02:27:50.830Z,95942.91
2019-02-17T02:30:20.350Z,95942.32
2019-02-17T02:32:49.839Z,95936.70
2019-02-17T02:35:19.297Z,95930.31
2019-02-17T02:37:48.787Z,95935.73
2019-02-17T02:40:18.315Z,95933.73
2019-02-17T02:42:47.776Z,95938.00
2019-02-17T02:45:17.294Z,95927.09
2019-02-17T02:47:46.773Z,95927.80
2019-02-17T02:50:16.252Z,95935.09
2019-02-17T02:52:45.743Z,95939.33
2019-02-17T02:55:17.017Z,95931.68
2019-02-17T02:57:46.520Z,95932.27
2019-02-17T03:00:16.218Z,95936.16
2019-02-17T03:02:45.735Z,95935.83
2019-02-17T03:05:15.179Z,95937.59
2019-02-17T03:07:44.668Z,95936.89
2019-02-17T03:10:14.168Z,95932.92
2019-02-17T03:12:43.680Z,95927.51
2019-02-17T03:15:13.177Z,95927.04
2019-02-17T03:17:42.680Z,95921.63
2019-02-17T03:20:12.152Z,95921.52
2019-02-17T03:22:41.712Z,95917.83
2019-02-17T03:25:11.193Z,95914.80
2019-02-17T03:27:40.671Z,95917.75
2019-02-17T03:30:10.244Z,95916.66
2019-02-17T03:32:39.758Z,95916.09
2019-02-17T03:35:09.271Z,95921.98
2019-02-17T03:37:38.790Z,95928.22
2019-02-17T03:40:08.675Z,95921.74
2019-02-17T03:42:38.164Z,95919.51
2019-02-17T03:45:07.867Z,95922.22
2019-02-17T03:47:37.362Z,95919.05
2019-02-17T03:50:07.186Z,95916.80
2019-02-17T03:52:36.681Z,95922.54
2019-02-17T03:55:06.176Z,95924.07
2019-02-17T03:57:35.718Z,95924.54
2019-02-17T04:00:16.391Z,95931.86
2019-02-17T04:02:36.965Z,95926.22
2019-02-17T04:05:06.619Z,95935.75
2019-02-17T04:07:36.119Z,95932.56
2019-02-17T04:10:05.859Z,95933.51
2019-02-17T04:12:35.348Z,95931.63
2019-02-17T04:15:04.936Z,95930.95
2019-02-17T04:17:34.403Z,95926.69
2019-02-17T04:20:03.886Z,95931.89
2019-02-17T04:22:33.398Z,95921.66
2019-02-17T04:25:02.881Z,95921.74
2019-02-17T04:27:32.387Z,95919.86
2019-02-17T04:30:01.886Z,95916.92
2019-02-17T04:32:31.359Z,95920.48
2019-02-17T04:35:00.826Z,95918.36
2019-02-17T04:37:30.290Z,95919.30
2019-02-17T04:39:59.778Z,95918.59
2019-02-17T04:42:29.292Z,95916.72
2019-02-17T04:44:58.750Z,95921.80
2019-02-17T04:47:28.287Z,95919.77
2019-02-17T04:49:57.822Z,95916.86
2019-02-17T04:52:27.298Z,95924.50
2019-02-17T04:54:56.757Z,95917.71
2019-02-17T04:57:26.216Z,95927.34
2019-02-17T04:59:55.706Z,95930.64
2019-02-17T05:02:25.204Z,95931.11
2019-02-17T05:04:54.685Z,95931.59
2019-02-17T05:07:24.197Z,95933.23
2019-02-17T05:09:53.664Z,95934.30
2019-02-17T05:12:23.209Z,95932.66
2019-02-17T05:14:52.714Z,95936.44
2019-02-17T05:17:22.219Z,95938.91
2019-02-17T05:19:51.695Z,95940.89
2019-02-17T05:22:21.157Z,95947.50
2019-02-17T05:24:50.656Z,95948.55
2019-02-17T05:27:20.137Z,95952.77
2019-02-17T05:29:49.591Z,95948.79
2019-02-17T05:32:19.048Z,95953.59
2019-02-17T05:34:48.788Z,95955.02
2019-02-17T05:37:18.247Z,95953.00
2019-02-17T05:39:47.745Z,95957.61
2019-02-17T05:42:17.500Z,95966.05
2019-02-17T05:44:46.937Z,95965.95
2019-02-17T05:47:16.492Z,95970.16
2019-02-17T05:49:45.981Z,95974.17
2019-02-17T05:52:15.457Z,95971.81
2019-02-17T05:54:44.959Z,95969.58
2019-02-17T05:57:14.467Z,95973.33
2019-02-17T05:59:43.926Z,95974.75
2019-02-17T06:02:13.434Z,95976.18
2019-02-17T06:04:42.905Z,95979.11
2019-02-17T06:07:12.437Z,95980.38
2019-02-17T06:09:41.974Z,95978.64
2019-02-17T06:12:11.428Z,95977.69
2019-02-17T06:14:40.964Z,95975.34
2019-02-17T06:17:10.482Z,95978.38
2019-02-17T06:19:39.963Z,95973.80
2019-02-17T06:22:09.482Z,95977.42
2019-02-17T06:24:38.967Z,95970.84
2019-02-17T06:27:08.446Z,95970.34
2019-02-17T06:29:37.912Z,95976.70
2019-02-17T06:32:07.436Z,95975.52
2019-02-17T06:34:36.902Z,95978.34
2019-02-17T06:37:06.382Z,95985.64
2019-02-17T06:39:35.846Z,95983.27
2019-02-17T06:42:05.322Z,95978.78
2019-02-17T06:44:34.811Z,95981.72
2019-02-17T06:47:05.962Z,95987.34
2019-02-17T06:49:35.474Z,95986.88
2019-02-17T06:52:04.965Z,95995.67
2019-02-17T06:54:34.479Z,95990.75
2019-02-17T06:57:16.858Z,95992.25
2019-02-17T06:59:46.374Z,95996.64
2019-02-17T07:02:15.875Z,95993.55
2019-02-17T07:05:10.673Z,95997.88
2019-02-17T07:07:40.200Z,95995.48
2019-02-17T07:10:09.738Z,95988.73
2019-02-17T07:12:39.220Z,95993.52
2019-02-17T07:15:08.697Z,95988.72
2019-02-17T07:17:38.229Z,95986.83
2019-02-17T07:20:09.672Z,95990.38
2019-02-17T07:22:38.979Z,95989.55
2019-02-17T07:25:08.482Z,95990.89
2019-02-17T07:27:38.002Z,95993.08
2019-02-17T07:30:07.682Z,95990.39
2019-02-17T07:32:37.277Z,95984.56
2019-02-17T07:35:06.801Z,95990.16
2019-02-17T07:37:36.303Z,95988.51
2019-02-17T07:40:06.066Z,95989.78
2019-02-17T07:42:35.561Z,95986.02
2019-02-17T07:45:05.332Z,95985.24
2019-02-17T07:47:34.818Z,95990.53
2019-02-17T07:50:04.464Z,95985.81
2019-02-17T07:52:34.509Z,95985.41
2019-02-17T07:55:05.368Z,95979.88
2019-02-17T07:57:34.962Z,95982.60
2019-02-17T08:00:04.864Z,95980.48
2019-02-17T08:02:34.401Z,95984.28
2019-02-17T08:05:04.013Z,95972.06
2019-02-17T08:07:33.524Z,95977.25
2019-02-17T08:10:03.048Z,95972.52
2019-02-17T08:12:32.556Z,95974.94
2019-02-17T08:15:02.087Z,95972.82
2019-02-17T08:17:31.618Z,95975.51
2019-02-17T08:20:01.628Z,95977.34
2019-02-17T08:22:31.190Z,95976.23
2019-02-17T08:25:00.680Z,95974.91
2019-02-17T08:27:30.207Z,95986.39
2019-02-17T08:29:59.847Z,95979.91
2019-02-17T08:32:29.451Z,95986.88
2019-02-17T08:34:59.054Z,95988.64
2019-02-17T08:37:28.579Z,95975.66
2019-02-17T08:39:58.292Z,95974.17
2019-02-17T08:42:27.854Z,95977.40
2019-02-17T08:44:57.451Z,95970.70
2019-02-17T08:47:27.020Z,95972.16
2019-02-17T08:49:56.569Z,95969.00
2019-02-17T08:52:26.065Z,95966.50
2019-02-17T08:54:55.615Z,95958.02
2019-02-17T08:57:25.380Z,95958.97
2019-02-17T08:59:54.876Z,95965.81
2019-02-17T09:02:24.440Z,95961.30
2019-02-17T09:04:53.929Z,95964.72
2019-02-17T09:07:23.443Z,95967.97
2019-02-17T09:09:53.019Z,95964.16
2019-02-17T09:12:22.594Z,95959.41
2019-02-17T09:14:52.164Z,95961.75
2019-02-17T09:17:21.688Z,95964.13
2019-02-17T09:19:51.205Z,95955.41
2019-02-17T09:22:20.739Z,95959.84
2019-02-17T09:24:50.234Z,95957.58
2019-02-17T09:27:19.767Z,95957.78
2019-02-17T09:29:49.534Z,95960.42
2019-02-17T09:32:19.066Z,95957.11
2019-02-17T09:34:48.591Z,95960.25
2019-02-17T09:37:18.134Z,95961.93
2019-02-17T09:39:47.629Z,95959.05
2019-02-17T09:42:17.119Z,95959.12
2019-02-17T09:44:46.661Z,95954.63
2019-02-17T09:47:16.175Z,95958.69
2019-02-17T09:49:45.729Z,95952.34
2019-02-17T09:52:43.437Z,95948.45
2019-02-17T09:55:13.010Z,95944.34
2019-02-17T09:57:42.489Z,95947.98
2019-02-17T10:00:12.651Z,95935.86
2019-02-17T10:02:45.096Z,95935.11
2019-02-17T10:05:15.191Z,95933.11
2019-02-17T10:07:44.680Z,95917.35
2019-02-17T10:10:14.726Z,95909.27
2019-02-17T10:12:44.267Z,95912.80
2019-02-17T10:15:14.281Z,95906.69
2019-02-17T10:17:43.859Z,95895.83
2019-02-17T10:20:13.541Z,95898.02
2019-02-17T10:22:43.620Z,95889.91
2019-02-17T10:25:13.337Z,95890.18
2019-02-17T10:27:42.840Z,95894.33
2019-02-17T10:30:13.091Z,95893.52
2019-02-17T10:32:43.416Z,95889.48
2019-02-17T10:35:12.936Z,95884.97
2019-02-17T10:37:42.474Z,95885.94
2019-02-17T10:40:15.160Z,95878.11
2019-02-17T10:42:44.656Z,95875.02
2019-02-17T10:45:16.555Z,95866.73
2019-02-17T10:47:46.183Z,95864.81
2019-02-17T10:50:16.398Z,95858.98
2019-02-17T10:52:45.890Z,95851.31
2019-02-17T10:55:17.171Z,95845.95
2019-02-17T10:57:46.714Z,95840.56
2019-02-17T11:00:17.060Z,95832.44
2019-02-17T11:02:47.654Z,95829.20
2019-02-17T11:05:17.787Z,95831.17
2019-02-17T11:07:47.258Z,95824.49
2019-02-17T11:10:16.829Z,95820.26
2019-02-17T11:12:46.319Z,95826.11
2019-02-17T11:15:20.699Z,95817.30
2019-02-17T11:17:50.204Z,95812.09
2019-02-17T11:20:19.663Z,95808.81
2019-02-17T11:22:49.128Z,95803.58
2019-02-17T11:25:18.639Z,95803.75
2019-02-17T11:27:48.167Z,95796.72
2019-02-17T11:30:17.697Z,95799.82
2019-02-17T11:32:57.192Z,95780.69
2019-02-17T11:35:18.444Z,95778.71
2019-02-17T11:37:48.045Z,95778.66
2019-02-17T11:40:17.519Z,95773.89
2019-02-17T11:42:47.057Z,95770.59
2019-02-17T11:45:17.474Z,95772.55
2019-02-17T11:47:46.998Z,95768.10
2019-02-17T11:50:16.492Z,95766.13
2019-02-17T11:52:46.005Z,95768.06
2019-02-17T11:55:15.516Z,95763.48
2019-02-17T11:57:45.198Z,95760.16
2019-02-17T12:00:19.459Z,95756.72
2019-02-17T12:02:48.941Z,95750.30
2019-02-17T12:05:18.429Z,95741.06
2019-02-17T12:07:47.901Z,95735.80
2019-02-17T12:10:17.514Z,95733.28
2019-02-17T12:12:47.003Z,95733.45
2019-02-17T12:15:16.532Z,95724.41
2019-02-17T12:17:46.722Z,95722.73
2019-02-17T12:20:36.680Z,95719.08
2019-02-17T12:23:10.304Z,95719.91
2019-02-17T12:25:45.266Z,95717.92
2019-02-17T12:28:28.504Z,95711.80
2019-02-17T12:30:58.031Z,95707.64
2019-02-17T12:33:27.552Z,95705.33
2019-02-17T12:35:57.129Z,95706.23
2019-02-17T12:38:26.669Z,95699.11
2019-02-17T12:40:56.174Z,95694.98
2019-02-17T12:43:25.656Z,95683.70
2019-02-17T12:45:55.156Z,95689.16
2019-02-17T12:48:24.699Z,95684.46
2019-02-17T12:50:54.265Z,95677.84
2019-02-17T12:53:23.752Z,95678.19
2019-02-17T12:55:53.320Z,95677.81
2019-02-17T12:58:29.614Z,95674.28
2019-02-17T13:00:54.259Z,95668.03
2019-02-17T13:03:28.511Z,95673.83
2019-02-17T13:05:55.020Z,95662.94
2019-02-17T13:08:24.539Z,95660.31
2019-02-17T13:10:54.020Z,95660.95
2019-02-17T13:13:23.522Z,95653.55
2019-02-17T13:15:53.047Z,95653.97
2019-02-17T13:18:22.577Z,95650.03
2019-02-17T13:20:52.141Z,95649.18
2019-02-17T13:23:21.724Z,95642.26
2019-02-17T13:25:51.269Z,95644.59
2019-02-17T13:28:20.827Z,95640.95
2019-02-17T13:30:50.373Z,95643.98
2019-02-17T13:33:19.908Z,95647.67
2019-02-17T13:35:49.420Z,95642.56
2019-02-17T13:38:19.070Z,95641.42
2019-02-17T13:40:48.617Z,95647.00
2019-02-17T13:43:18.072Z,95640.77
2019-02-17T13:45:47.602Z,95647.45
2019-02-17T13:48:17.125Z,95636.27
2019-02-17T13:50:46.633Z,95636.72
2019-02-17T13:53:16.128Z,95632.59
2019-02-17T13:55:45.643Z,95630.70
2019-02-17T13:58:15.164Z,95632.97
2019-02-17T14:00:44.673Z,95627.40
2019-02-17T14:03:14.180Z,95635.84
2019-02-17T14:05:43.808Z,95632.98
2019-02-17T14:08:13.312Z,95630.35
2019-02-17T14:10:42.806Z,95632.48
2019-02-17T14:13:12.401Z,95627.09
2019-02-17T14:15:41.914Z,95621.88
2019-02-17T14:18:16.274Z,95620.70
2019-02-17T14:20:45.780Z,95617.08
2019-02-17T14:23:15.333Z,95622.83
2019-02-17T14:25:44.822Z,95621.34
2019-02-17T14:28:14.403Z,95619.21
2019-02-17T14:30:43.918Z,95620.66
2019-02-17T14:33:13.472Z,95614.14
2019-02-17T14:35:42.954Z,95615.82
2019-02-17T14:38:12.483Z,95614.95
2019-02-17T14:40:41.927Z,95615.09
2019-02-17T14:43:11.715Z,95616.03
2019-02-17T14:45:41.219Z,95612.31
2019-02-17T14:48:11.467Z,95604.06
2019-02-17T14:50:41.319Z,95611.59
2019-02-17T14:53:10.832Z,95606.20
2019-02-17T14:55:40.319Z,95602.89
2019-02-17T14:58:09.830Z,95600.77
2019-02-17T15:00:39.325Z,95599.81
2019-02-17T15:03:08.843Z,95595.55
2019-02-17T15:05:38.312Z,95595.73
2019-02-17T15:08:07.828Z,95598.13
2019-02-17T15:10:37.326Z,95596.00
2019-02-17T15:13:06.856Z,95596.36
2019-02-17T15:15:36.377Z,95599.58
2019-02-17T15:18:05.987Z,95602.11
2019-02-17T15:20:38.942Z,95604.73
2019-02-17T15:23:08.422Z,95600.88
2019-02-17T15:25:37.922Z,95602.39
2019-02-17T15:28:07.423Z,95610.38
2019-02-17T15:30:36.949Z,95608.51
2019-02-17T15:33:10.652Z,95604.93
2019-02-17T15:35:40.168Z,95605.54
2019-02-17T15:38:09.706Z,95603.34
2019-02-17T15:40:39.306Z,95598.20
2019-02-17T15:43:08.849Z,95600.23
2019-02-17T15:45:38.345Z,95607.03
2019-02-17T15:48:07.834Z,95605.47
2019-02-17T15:50:37.509Z,95608.63
2019-02-17T15:53:07.010Z,95610.53
2019-02-17T15:55:36.518Z,95619.42
2019-02-17T15:58:06.392Z,95619.66
2019-02-17T16:00:35.965Z,95623.20
2019-02-17T16:03:05.556Z,95630.28
2019-02-17T16:05:35.216Z,95622.97
2019-02-17T16:08:04.793Z,95628.62
2019-02-17T16:10:34.376Z,95629.28
2019-02-17T16:13:03.969Z,95637.55
2019-02-17T16:15:35.647Z,95628.45
2019-02-17T16:18:05.268Z,95636.20
2019-02-17T16:20:36.633Z,95636.52
2019-02-17T16:23:06.124Z,95639.51
2019-02-17T16:25:35.652Z,95642.52
2019-02-17T16:28:05.167Z,95643.67
2019-02-17T16:30:34.695Z,95640.30
2019-02-17T16:33:07.407Z,95644.72
2019-02-17T16:35:41.500Z,95649.37
2019-02-17T16:38:11.118Z,95653.66
2019-02-17T16:40:40.645Z,95651.44
2019-02-17T16:43:10.152Z,95650.13
2019-02-17T16:45:39.672Z,95653.25
2019-02-17T16:48:09.173Z,95655.46
2019-02-17T16:50:38.634Z,95670.23
2019-02-17T16:53:08.087Z,95661.19
2019-02-17T16:55:37.627Z,95654.36
2019-02-17T16:58:07.137Z,95667.48
2019-02-17T17:00:38.177Z,95667.33
2019-02-17T17:03:07.675Z,95669.81
2019-02-17T17:05:37.146Z,95675.70
2019-02-17T17:08:06.586Z,95679.98
2019-02-17T17:10:36.093Z,95680.27
2019-02-17T17:13:05.678Z,95679.48
2019-02-17T17:15:35.268Z,95678.34
2019-02-17T17:18:04.890Z,95678.34
2019-02-17T17:20:34.365Z,95682.95
2019-02-17T17:23:05.227Z,95682.98
2019-02-17T17:25:34.877Z,95684.61
2019-02-17T17:28:04.388Z,95681.34
2019-02-17T17:30:33.905Z,95685.75
2019-02-17T17:33:03.395Z,95680.37
2019-02-17T17:35:32.972Z,95680.23
2019-02-17T17:38:24.601Z,95682.88
2019-02-17T17:40:54.135Z,95683.52
2019-02-17T17:43:23.653Z,95679.11
2019-02-17T17:45:53.207Z,95687.10
2019-02-17T17:48:23.928Z,95685.65
2019-02-17T17:50:53.585Z,95689.89
2019-02-17T17:53:23.092Z,95686.97
2019-02-17T17:55:52.586Z,95689.90
2019-02-17T17:58:22.333Z,95685.00
2019-02-17T18:00:51.899Z,95690.23
2019-02-17T18:03:21.473Z,95691.22
2019-02-17T18:05:50.994Z,95694.17
2019-02-17T18:08:20.486Z,95688.27
2019-02-17T18:10:50.023Z,95695.61
2019-02-17T18:13:21.425Z,95692.84
2019-02-17T18:15:50.778Z,95695.47
2019-02-17T18:18:20.282Z,95687.31
2019-02-17T18:20:49.804Z,95692.05
2019-02-17T18:23:19.405Z,95698.41
2019-02-17T18:25:48.926Z,95696.08
2019-02-17T18:28:18.419Z,95699.34
2019-02-17T18:30:48.033Z,95696.41
2019-02-17T18:33:17.643Z,95694.11
2019-02-17T18:35:47.225Z,95698.36
2019-02-17T18:38:16.739Z,95693.95
2019-02-17T18:40:47.944Z,95701.95
2019-02-17T18:43:20.663Z,95699.98
2019-02-17T18:45:50.248Z,95696.69
2019-02-17T18:48:19.756Z,95701.09
2019-02-17T18:50:58.752Z,95696.84
2019-02-17T18:53:20.536Z,95701.73
2019-02-17T18:55:50.034Z,95701.41
2019-02-17T18:58:19.544Z,95696.03
2019-02-17T19:00:49.148Z,95704.17
2019-02-17T19:03:18.867Z,95704.52
2019-02-17T19:05:48.375Z,95700.88
2019-02-17T19:08:17.950Z,95701.85
2019-02-17T19:10:47.426Z,95706.10
2019-02-17T19:13:17.270Z,95705.62
2019-02-17T19:15:48.088Z,95697.30
2019-02-17T19:18:17.598Z,95696.31
2019-02-17T19:20:47.118Z,95702.19
2019-02-17T19:23:16.626Z,95704.63
2019-02-17T19:25:46.186Z,95704.63
2019-02-17T19:28:26.157Z,95703.16
2019-02-17T19:30:55.645Z,95703.67
2019-02-17T19:33:25.108Z,95702.83
2019-02-17T19:35:54.824Z,95703.98
2019-02-17T19:38:24.324Z,95706.59
2019-02-17T19:40:53.820Z,95707.89
2019-02-17T19:43:23.353Z,95706.75
2019-02-17T19:45:55.700Z,95705.75
2019-02-17T19:48:29.039Z,95703.12
2019-02-17T19:50:58.539Z,95710.97
2019-02-17T19:53:30.597Z,95705.23
2019-02-17T19:56:00.156Z,95707.37
2019-02-17T19:58:29.925Z,95704.76
2019-02-17T20:01:06.494Z,95710.61
2019-02-17T20:03:51.969Z,95713.89
2019-02-17T20:06:25.421Z,95712.89
2019-02-17T20:08:54.895Z,95713.34
2019-02-17T20:11:24.512Z,95721.35
2019-02-17T20:13:54.021Z,95722.66
2019-02-17T20:16:23.537Z,95712.38
2019-02-17T20:18:53.158Z,95717.86
2019-02-17T20:21:22.659Z,95716.89
2019-02-17T20:23:52.402Z,95716.08
2019-02-17T20:26:21.908Z,95719.66
2019-02-17T20:28:57.123Z,95710.67
2019-02-17T20:31:22.721Z,95718.62
2019-02-17T20:33:52.208Z,95716.98
2019-02-17T20:36:21.677Z,95714.86
2019-02-17T20:38:51.187Z,95720.22
2019-02-17T20:41:20.755Z,95713.03
2019-02-17T20:43:50.244Z,95711.23
2019-02-17T20:46:19.885Z,95711.88
2019-02-17T20:48:49.479Z,95710.72
2019-02-17T20:51:18.968Z,95706.14
2019-02-17T20:53:48.453Z,95712.17
2019-02-17T20:56:21.318Z,95709.37
2019-02-17T20:58:50.889Z,95708.55
2019-02-17T21:01:20.359Z,95706.73
2019-02-17T21:03:49.853Z,95710.45
2019-02-17T21:06:19.322Z,95707.69
2019-02-17T21:08:48.799Z,95706.20
2019-02-17T21:11:18.275Z,95708.67
2019-02-17T21:13:47.752Z,95702.78
2019-02-17T21:16:17.243Z,95704.27
2019-02-17T21:18:46.728Z,95705.57
2019-02-17T21:21:16.217Z,95708.63
2019-02-17T21:23:45.704Z,95702.30
2019-02-17T21:26:15.205Z,95711.56
2019-02-17T21:28:44.710Z,95713.53
2019-02-17T21:31:14.185Z,95710.93
2019-02-17T21:33:43.694Z,95713.88
2019-02-17T21:36:22.562Z,95715.03
2019-02-17T21:38:44.373Z,95718.50
2019-02-17T21:41:13.865Z,95713.95
2019-02-17T21:43:43.345Z,95715.22
2019-02-17T21:46:12.859Z,95721.25
2019-02-17T21:48:42.339Z,95715.52
2019-02-17T21:51:11.947Z,95714.55
2019-02-17T21:53:41.368Z,95716.44
2019-02-17T21:56:10.892Z,95719.52
2019-02-17T21:58:40.369Z,95716.28
2019-02-17T22:01:09.856Z,95719.38
2019-02-17T22:03:39.356Z,95713.19
2019-02-17T22:06:08.826Z,95718.22
2019-02-17T22:08:38.288Z,95725.55
2019-02-17T22:11:07.762Z,95727.48
2019-02-17T22:13:37.212Z,95729.08
2019-02-17T22:16:06.703Z,95721.25
2019-02-17T22:18:36.319Z,95723.38
2019-02-17T22:21:05.818Z,95722.89
2019-02-17T22:23:35.305Z,95722.23
2019-02-17T22:26:04.787Z,95722.91
2019-02-17T22:28:34.279Z,95719.96
2019-02-17T22:31:03.798Z,95717.34
2019-02-17T22:33:33.314Z,95713.10
2019-02-17T22:36:02.820Z,95722.37
2019-02-17T22:38:32.319Z,95724.48
2019-02-17T22:41:01.834Z,95726.42
2019-02-17T22:43:31.302Z,95725.11
2019-02-17T22:46:00.757Z,95723.13
2019-02-17T22:48:30.221Z,95721.64
2019-02-17T22:50:59.763Z,95720.15
2019-02-17T22:53:29.217Z,95725.00
2019-02-17T22:55:58.729Z,95725.78
2019-02-17T22:58:28.309Z,95733.95
2019-02-17T23:01:00.575Z,95721.95
2019-02-17T23:03:30.789Z,95720.69
2019-02-17T23:06:00.308Z,95729.70
2019-02-17T23:08:29.821Z,95727.89
2019-02-17T23:10:59.341Z,95725.57
2019-02-17T23:13:28.864Z,95725.48
2019-02-17T23:15:58.345Z,95730.72
2019-02-17T23:18:27.856Z,95726.38
2019-02-17T23:20:57.398Z,95730.72
2019-02-17T23:23:26.875Z,95726.17
2019-02-17T23:25:56.508Z,95724.16
2019-02-17T23:28:25.997Z,95724.70
2019-02-17T23:30:55.488Z,95723.06
2019-02-17T23:33:24.996Z,95723.42
2019-02-17T23:35:54.615Z,95716.41
2019-02-17T23:38:24.114Z,95719.76
2019-02-17T23:40:53.642Z,95725.44
2019-02-17T23:43:23.170Z,95718.73
2019-02-17T23:45:52.661Z,95720.51
2019-02-17T23:48:22.142Z,95714.50
2019-02-17T23:50:51.638Z,95721.77
2019-02-17T23:53:21.159Z,95722.64
2019-02-17T23:55:50.701Z,95722.51
2019-02-17T23:58:20.164Z,95723.88
